Time;durP1;ratioP1;P1;durP2;ratioP2;P2;SDS_P1;SDS_P2;PMS_P1;PMS_P2;Temp;Humidity;BMP_temperature;BMP_pressure;BME280_temperature;BME280_humidity;BME280_pressure;Samples;Min_cycle;Max_cycle;Signal;HPM_P1;HPM_P2
2020/12/21 00:00:29;;;;;;;13.77;11.17;;;6.10;1.00;;;;;;5055384;28;20442;-56
2020/12/21 00:02:55;;;;;;;13.07;10.73;;;6.10;1.00;;;;;;5055712;28;20335;-54
2020/12/21 00:05:20;;;;;;;12.70;10.50;;;6.10;1.00;;;;;;5055997;28;20543;-56
2020/12/21 00:07:46;;;;;;;11.67;9.33;;;6.00;1.00;;;;;;5056593;28;20183;-55
2020/12/21 00:10:11;;;;;;;15.07;10.20;;;6.00;1.00;;;;;;5056651;28;20191;-59
2020/12/21 00:12:37;;;;;;;15.00;9.93;;;6.10;1.00;;;;;;5057243;28;20180;-60
2020/12/21 00:15:06;;;;;;;15.10;10.60;;;6.10;1.00;;;;;;5057000;28;20180;-57
2020/12/21 00:17:34;;;;;;;12.80;10.67;;;6.20;1.00;;;;;;5054854;28;20181;-60
2020/12/21 00:19:59;;;;;;;14.13;10.40;;;6.10;1.00;;;;;;5057304;28;20884;-55
2020/12/21 00:22:25;;;;;;;19.17;11.67;;;6.10;1.00;;;;;;5056197;28;20485;-59
2020/12/21 00:24:51;;;;;;;15.90;10.47;;;6.30;1.00;;;;;;5053345;28;20250;-56
2020/12/21 00:27:16;;;;;;;16.40;12.00;;;6.20;1.00;;;;;;5043296;28;20180;-55
2020/12/21 00:29:42;;;;;;;15.40;11.40;;;6.30;1.00;;;;;;5056894;28;20172;-55
2020/12/21 00:32:08;;;;;;;14.80;11.20;;;6.20;1.00;;;;;;5056779;28;20467;-56
2020/12/21 00:34:33;;;;;;;16.90;10.00;;;6.30;1.00;;;;;;5054659;28;20245;-60
2020/12/21 00:36:59;;;;;;;16.30;10.80;;;6.40;1.00;;;;;;5055399;28;20184;-59
2020/12/21 00:39:24;;;;;;;17.07;11.57;;;6.20;1.00;;;;;;5051884;28;20634;-58
2020/12/21 00:41:50;;;;;;;15.00;11.30;;;6.20;1.00;;;;;;5055225;28;20203;-58
2020/12/21 00:44:16;;;;;;;17.07;10.97;;;6.20;1.00;;;;;;5056011;28;20234;-59
2020/12/21 00:46:43;;;;;;;16.10;12.13;;;6.20;1.00;;;;;;5056351;28;20228;-59
2020/12/21 00:49:08;;;;;;;14.23;10.77;;;6.10;1.00;;;;;;5056409;28;20425;-59
2020/12/21 00:51:35;;;;;;;15.33;11.33;;;6.10;1.00;;;;;;5056164;28;20435;-56
2020/12/21 00:54:01;;;;;;;17.90;12.33;;;6.20;1.00;;;;;;5054236;28;20879;-55
2020/12/21 00:56:26;;;;;;;17.07;11.57;;;6.20;1.00;;;;;;5056033;28;20430;-55
2020/12/21 00:58:52;;;;;;;16.50;11.63;;;6.20;1.00;;;;;;5055731;28;20188;-59
2020/12/21 01:01:21;;;;;;;17.93;11.30;;;6.10;1.00;;;;;;5054696;28;20180;-56
2020/12/21 01:03:47;;;;;;;14.67;11.47;;;6.00;1.00;;;;;;5050193;28;20831;-55
2020/12/21 01:06:13;;;;;;;15.77;11.50;;;6.00;1.00;;;;;;5054486;28;20441;-60
2020/12/21 01:08:40;;;;;;;15.30;10.80;;;6.00;1.00;;;;;;5053230;28;20423;-60
2020/12/21 01:11:09;;;;;;;13.63;10.70;;;5.90;1.00;;;;;;5054625;28;20514;-55
2020/12/21 01:13:35;;;;;;;15.23;10.90;;;5.90;1.00;;;;;;5055179;28;20981;-60
2020/12/21 01:16:01;;;;;;;13.40;11.60;;;5.90;1.00;;;;;;5055519;28;20434;-55
2020/12/21 01:18:27;;;;;;;16.87;11.03;;;5.90;1.00;;;;;;5055750;28;20429;-55
2020/12/21 01:20:53;;;;;;;15.00;11.43;;;6.00;1.00;;;;;;5054551;28;20263;-55
2020/12/21 01:23:19;;;;;;;14.13;10.07;;;6.00;1.00;;;;;;5053206;28;20553;-59
2020/12/21 01:25:45;;;;;;;15.00;11.27;;;5.90;1.00;;;;;;5055687;28;20202;-59
2020/12/21 01:28:11;;;;;;;15.10;11.00;;;5.90;2.70;;;;;;5055572;28;20466;-55
2020/12/21 01:30:37;;;;;;;16.23;11.97;;;5.90;4.20;;;;;;5050945;28;20184;-59
2020/12/21 01:33:02;;;;;;;14.60;11.90;;;5.90;5.90;;;;;;5052964;28;20184;-56
2020/12/21 01:35:28;;;;;;;15.20;11.23;;;5.90;5.10;;;;;;5054881;28;20242;-58
2020/12/21 01:37:54;;;;;;;14.30;11.27;;;5.90;5.20;;;;;;5053998;28;20192;-56
2020/12/21 01:40:20;;;;;;;17.97;11.60;;;5.90;8.90;;;;;;5055527;28;20188;-60
2020/12/21 01:42:45;;;;;;;15.83;10.80;;;5.90;9.00;;;;;;5054536;28;20815;-56
2020/12/21 01:45:11;;;;;;;17.53;13.03;;;6.00;10.00;;;;;;5055065;28;20183;-56
2020/12/21 01:47:37;;;;;;;18.93;12.83;;;6.00;7.30;;;;;;5054469;28;20600;-55
2020/12/21 01:50:04;;;;;;;16.53;12.07;;;5.90;10.00;;;;;;5053454;28;20176;-59
2020/12/21 01:52:31;;;;;;;16.13;11.40;;;6.00;9.00;;;;;;5051998;28;20582;-59
2020/12/21 01:54:56;;;;;;;16.47;11.43;;;5.90;8.00;;;;;;5073226;28;20762;-56
2020/12/21 01:57:22;;;;;;;15.30;11.53;;;5.90;11.60;;;;;;5062051;28;20895;-55
2020/12/21 01:59:48;;;;;;;18.50;11.97;;;5.90;15.50;;;;;;5055303;28;20168;-60
2020/12/21 02:02:13;;;;;;;17.50;12.50;;;5.90;12.30;;;;;;5070865;28;20183;-62
2020/12/21 02:04:39;;;;;;;16.90;11.93;;;5.90;14.50;;;;;;5054798;28;20195;-55
2020/12/21 02:07:06;;;;;;;17.17;11.73;;;5.90;14.50;;;;;;5047736;28;20186;-59
2020/12/21 02:09:33;;;;;;;17.93;12.30;;;6.00;12.60;;;;;;5054680;28;20184;-59
2020/12/21 02:11:59;;;;;;;15.43;11.83;;;6.10;10.20;;;;;;5052349;28;20449;-59
2020/12/21 02:14:24;;;;;;;15.77;11.00;;;6.10;10.00;;;;;;5052607;28;20516;-55
2020/12/21 02:16:50;;;;;;;17.17;11.77;;;6.10;7.30;;;;;;5055909;28;20184;-60
2020/12/21 02:19:18;;;;;;;17.80;12.07;;;6.10;10.00;;;;;;5054617;28;20596;-55
2020/12/21 02:21:44;;;;;;;18.83;12.80;;;6.00;10.90;;;;;;5053644;28;20185;-59
2020/12/21 02:24:10;;;;;;;16.47;11.47;;;6.00;11.60;;;;;;5054719;28;20450;-59
2020/12/21 02:26:36;;;;;;;21.20;12.40;;;6.00;10.00;;;;;;5054269;28;20437;-55
2020/12/21 02:29:01;;;;;;;18.27;11.77;;;6.00;10.00;;;;;;5050526;28;20630;-55
2020/12/21 02:31:27;;;;;;;20.33;13.50;;;6.00;10.00;;;;;;5051279;28;20211;-60
2020/12/21 02:33:53;;;;;;;18.37;12.97;;;6.00;10.80;;;;;;5054085;28;20180;-55
2020/12/21 02:36:19;;;;;;;15.77;11.27;;;6.00;12.60;;;;;;5070075;28;20182;-55
2020/12/21 02:38:45;;;;;;;20.17;13.20;;;5.90;12.80;;;;;;5054172;28;20418;-55
2020/12/21 02:41:15;;;;;;;19.03;12.90;;;6.00;11.60;;;;;;5054445;28;20461;-55
2020/12/21 02:43:41;;;;;;;19.10;13.10;;;6.00;12.60;;;;;;5054234;28;20542;-57
2020/12/21 02:46:08;;;;;;;19.87;13.50;;;7.20;11.50;;;;;;5053682;28;20492;-59
2020/12/21 02:48:34;;;;;;;17.63;11.60;;;5.90;12.90;;;;;;5054115;28;20168;-55
2020/12/21 02:50:59;;;;;;;21.37;12.30;;;5.90;9.90;;;;;;5054134;28;20414;-55
2020/12/21 02:53:25;;;;;;;19.37;12.90;;;5.90;8.00;;;;;;5053455;28;20922;-55
2020/12/21 02:55:51;;;;;;;17.37;12.70;;;5.80;11.50;;;;;;5051194;28;20434;-59
2020/12/21 02:58:16;;;;;;;18.03;11.97;;;5.80;11.20;;;;;;5050371;28;20180;-60
2020/12/21 03:00:42;;;;;;;19.10;11.90;;;5.70;15.10;;;;;;5053960;28;20564;-59
2020/12/21 03:03:08;;;;;;;17.93;12.70;;;5.70;17.90;;;;;;5052793;28;20235;-55
2020/12/21 03:05:34;;;;;;;20.93;13.20;;;5.70;18.80;;;;;;5052923;28;20617;-55
2020/12/21 03:08:01;;;;;;;20.60;14.50;;;5.70;18.80;;;;;;5036787;28;20231;-55
2020/12/21 03:10:27;;;;;;;22.07;12.77;;;5.60;18.80;;;;;;5044928;28;20194;-55
2020/12/21 03:12:53;;;;;;;20.97;13.20;;;5.60;20.60;;;;;;5053206;28;20422;-56
2020/12/21 03:15:19;;;;;;;20.20;13.67;;;5.60;21.40;;;;;;5043212;28;20444;-59
2020/12/21 03:17:44;;;;;;;22.27;13.13;;;5.60;19.40;;;;;;5053936;28;20267;-59
2020/12/21 03:20:10;;;;;;;20.50;13.27;;;5.60;20.50;;;;;;5053455;28;20434;-59
2020/12/21 03:22:35;;;;;;;19.43;13.30;;;5.70;19.50;;;;;;5050184;28;20667;-55
2020/12/21 03:25:01;;;;;;;20.27;13.13;;;5.70;16.70;;;;;;5046403;28;20184;-53
2020/12/21 03:27:27;;;;;;;19.10;12.90;;;5.80;16.30;;;;;;5055273;28;20180;-57
2020/12/21 03:29:53;;;;;;;17.13;11.40;;;5.70;16.90;;;;;;5058261;28;20172;-54
2020/12/21 03:32:18;;;;;;;15.67;11.63;;;5.80;17.20;;;;;;5054600;28;20637;-54
2020/12/21 03:34:44;;;;;;;18.90;11.83;;;5.80;14.60;;;;;;5056682;28;20279;-54
2020/12/21 03:37:10;;;;;;;19.37;12.43;;;5.80;11.30;;;;;;5056109;28;20180;-55
2020/12/21 03:39:36;;;;;;;18.00;13.07;;;5.80;13.90;;;;;;5058210;28;20194;-55
2020/12/21 03:42:02;;;;;;;16.83;10.60;;;5.80;10.50;;;;;;5057152;28;20430;-59
2020/12/21 03:44:28;;;;;;;17.87;11.90;;;5.80;10.10;;;;;;5056576;28;20246;-59
2020/12/21 03:46:54;;;;;;;15.80;11.27;;;5.80;11.90;;;;;;5057418;28;20497;-55
2020/12/21 03:49:20;;;;;;;18.43;12.13;;;5.80;10.00;;;;;;5054427;28;20203;-58
2020/12/21 03:51:45;;;;;;;18.80;12.37;;;5.70;13.40;;;;;;5057245;28;20427;-59
2020/12/21 03:54:11;;;;;;;18.97;12.10;;;5.80;14.10;;;;;;5057461;28;20172;-54
2020/12/21 03:56:41;;;;;;;15.70;11.77;;;5.80;9.90;;;;;;5057321;28;20483;-58
2020/12/21 03:59:06;;;;;;;19.30;12.93;;;5.90;9.90;;;;;;5054076;28;20257;-55
2020/12/21 04:01:32;;;;;;;17.63;12.13;;;5.80;8.80;;;;;;5054506;28;20915;-55
2020/12/21 04:03:57;;;;;;;17.97;12.07;;;5.80;9.30;;;;;;5052094;28;20211;-59
2020/12/21 04:06:23;;;;;;;16.90;11.57;;;5.90;8.40;;;;;;5051807;28;20526;-59
2020/12/21 04:08:49;;;;;;;17.07;11.87;;;5.90;7.70;;;;;;5057390;28;20237;-55
2020/12/21 04:11:14;;;;;;;18.57;12.93;;;5.90;6.00;;;;;;5055932;28;20225;-55
2020/12/21 04:13:40;;;;;;;15.30;11.00;;;5.90;7.60;;;;;;5054693;28;20520;-59
2020/12/21 04:16:06;;;;;;;15.27;11.37;;;6.10;1.00;;;;;;5057402;28;20241;-58
2020/12/21 04:18:31;;;;;;;16.10;11.93;;;6.00;1.00;;;;;;5056370;28;20275;-59
2020/12/21 04:20:57;;;;;;;15.87;11.17;;;5.90;1.00;;;;;;5038218;28;20192;-55
2020/12/21 04:23:23;;;;;;;16.87;11.47;;;5.90;1.60;;;;;;5056705;28;20698;-59
2020/12/21 04:25:49;;;;;;;13.37;9.47;;;6.00;1.00;;;;;;5054960;28;20422;-55
2020/12/21 04:28:15;;;;;;;17.60;10.93;;;5.90;1.00;;;;;;5053930;28;20191;-60
2020/12/21 04:30:41;;;;;;;18.17;11.63;;;5.90;1.00;;;;;;5055459;28;20431;-59
2020/12/21 04:33:06;;;;;;;19.57;12.87;;;5.90;1.00;;;;;;5056070;28;20438;-59
2020/12/21 04:35:32;;;;;;;18.57;11.33;;;5.80;2.30;;;;;;5059735;28;20568;-55
2020/12/21 04:37:58;;;;;;;15.93;10.80;;;5.90;2.10;;;;;;5054493;28;20267;-59
2020/12/21 04:40:23;;;;;;;16.40;11.37;;;5.90;2.30;;;;;;5056170;28;20650;-58
2020/12/21 04:42:53;;;;;;;19.27;11.37;;;5.80;5.00;;;;;;5056529;28;20196;-55
2020/12/21 04:45:19;;;;;;;15.27;9.97;;;5.80;5.10;;;;;;5057042;28;20245;-59
2020/12/21 04:47:46;;;;;;;15.43;10.70;;;5.90;3.20;;;;;;5056122;28;20497;-58
2020/12/21 04:50:16;;;;;;;18.27;12.10;;;5.90;4.80;;;;;;5055739;28;20521;-55
2020/12/21 04:52:51;;;;;;;15.33;11.77;;;5.90;5.70;;;;;;5054558;28;20426;-55
2020/12/21 04:55:22;;;;;;;16.10;11.53;;;5.90;4.20;;;;;;5053226;28;20467;-58
2020/12/21 04:57:58;;;;;;;16.73;11.37;;;5.90;2.70;;;;;;5052686;28;20429;-55
2020/12/21 05:00:25;;;;;;;15.50;10.93;;;6.00;2.20;;;;;;5056416;28;20444;-55
2020/12/21 05:02:51;;;;;;;16.37;11.03;;;6.00;1.00;;;;;;5054672;28;20466;-55
2020/12/21 05:05:37;;;;;;;15.30;11.13;;;5.90;1.00;;;;;;5056241;28;20424;-56
2020/12/21 05:08:10;;;;;;;16.33;10.73;;;5.90;1.00;;;;;;5056424;28;20458;-55
2020/12/21 05:10:37;;;;;;;15.17;10.83;;;6.00;2.80;;;;;;5052217;28;20431;-55
2020/12/21 05:13:03;;;;;;;16.70;11.07;;;6.00;1.00;;;;;;5050881;28;20443;-55
2020/12/21 05:15:29;;;;;;;14.97;10.20;;;6.00;1.00;;;;;;5050256;28;20769;-54
2020/12/21 05:18:11;;;;;;;17.13;10.90;;;6.00;1.00;;;;;;5051643;28;20437;-56
2020/12/21 05:20:41;;;;;;;15.40;9.80;;;6.10;2.20;;;;;;5055894;28;20876;-55
2020/12/21 05:23:16;;;;;;;17.40;10.53;;;6.10;1.00;;;;;;5053699;28;20458;-57
2020/12/21 05:25:43;;;;;;;16.13;12.60;;;6.10;1.00;;;;;;5053203;28;20426;-56
2020/12/21 05:28:13;;;;;;;17.93;11.20;;;6.20;1.00;;;;;;5050297;28;20925;-58
2020/12/21 05:31:06;;;;;;;17.17;9.27;;;6.10;1.00;;;;;;5050374;28;20411;-59
2020/12/21 05:33:33;;;;;;;15.70;9.70;;;6.10;1.00;;;;;;5048336;28;20452;-59
2020/12/21 05:36:10;;;;;;;17.30;10.47;;;6.10;1.00;;;;;;5052677;28;20438;-56
2020/12/21 05:38:36;;;;;;;17.40;11.57;;;6.10;1.00;;;;;;5054328;28;20427;-58
2020/12/21 05:41:18;;;;;;;16.27;11.07;;;6.10;1.00;;;;;;5054087;28;20445;-57
2020/12/21 05:43:45;;;;;;;18.37;11.13;;;6.00;1.00;;;;;;5054604;28;20465;-59
2020/12/21 05:46:13;;;;;;;19.93;11.93;;;6.00;1.00;;;;;;5052378;28;20489;-56
2020/12/21 05:48:45;;;;;;;15.60;10.87;;;5.90;1.00;;;;;;5054523;28;20428;-58
2020/12/21 05:51:19;;;;;;;16.00;11.40;;;5.90;1.00;;;;;;5054827;28;20490;-56
2020/12/21 05:53:45;;;;;;;15.77;10.60;;;5.90;1.00;;;;;;5070948;28;20509;-59
2020/12/21 05:56:11;;;;;;;16.87;10.30;;;5.90;1.00;;;;;;5070330;28;20521;-60
2020/12/21 05:58:39;;;;;;;17.00;10.93;;;5.90;1.00;;;;;;5054521;28;20172;-56
2020/12/21 06:01:06;;;;;;;18.73;11.00;;;5.80;1.00;;;;;;5054826;28;20430;-56
2020/12/21 06:03:46;;;;;;;20.97;14.57;;;5.70;2.10;;;;;;5054355;28;20554;-56
2020/12/21 06:06:16;;;;;;;19.40;12.57;;;5.70;2.80;;;;;;5054898;28;20441;-56
2020/12/21 06:08:44;;;;;;;18.43;12.27;;;5.70;4.00;;;;;;5055172;28;20436;-55
2020/12/21 06:11:17;;;;;;;17.37;11.20;;;5.70;1.40;;;;;;5054850;28;20419;-55
2020/12/21 06:14:02;;;;;;;17.47;11.97;;;5.70;2.70;;;;;;5054617;28;20426;-56
2020/12/21 06:16:31;;;;;;;20.70;11.80;;;5.70;1.00;;;;;;5035205;28;20425;-55
2020/12/21 06:18:59;;;;;;;16.50;11.70;;;5.60;3.70;;;;;;5040462;28;20438;-55
2020/12/21 06:21:26;;;;;;;20.47;12.63;;;5.50;3.30;;;;;;5036895;28;20978;-58
2020/12/21 06:23:51;;;;;;;17.40;11.37;;;5.40;6.00;;;;;;5054138;28;20942;-55
2020/12/21 06:26:17;;;;;;;22.70;14.10;;;5.30;6.90;;;;;;5050751;28;20436;-54
2020/12/21 06:28:43;;;;;;;21.87;12.43;;;5.20;9.10;;;;;;5054613;28;20601;-59
2020/12/21 06:31:14;;;;;;;20.77;12.83;;;5.20;10.60;;;;;;5052915;28;20897;-54
2020/12/21 06:33:40;;;;;;;20.63;13.47;;;5.10;13.20;;;;;;5052652;28;20503;-54
2020/12/21 06:36:05;;;;;;;18.60;12.20;;;5.10;14.20;;;;;;5051354;28;20437;-57
2020/12/21 06:38:45;;;;;;;20.90;11.80;;;5.10;15.80;;;;;;5069544;28;20435;-55
2020/12/21 06:41:26;;;;;;;19.67;12.60;;;5.10;17.40;;;;;;5053239;28;20175;-54
2020/12/21 06:44:09;;;;;;;20.10;12.60;;;5.00;20.10;;;;;;5053844;28;20574;-59
2020/12/21 06:46:36;;;;;;;24.33;12.73;;;5.00;20.90;;;;;;5053708;28;20462;-57
2020/12/21 06:49:06;;;;;;;22.93;14.03;;;5.00;21.90;;;;;;5054258;28;20417;-58
2020/12/21 06:51:33;;;;;;;17.23;11.53;;;5.10;26.40;;;;;;5054187;28;20421;-58
2020/12/21 06:54:01;;;;;;;22.20;12.63;;;5.10;27.30;;;;;;5053739;28;20448;-56
2020/12/21 06:56:27;;;;;;;19.33;12.60;;;5.30;22.00;;;;;;5053141;28;20540;-56
2020/12/21 06:58:57;;;;;;;17.80;12.17;;;5.30;18.70;;;;;;5051600;28;20938;-56
2020/12/21 07:01:24;;;;;;;18.53;12.10;;;5.40;17.50;;;;;;5053408;28;20452;-58
2020/12/21 07:03:50;;;;;;;19.00;12.97;;;5.50;16.60;;;;;;5051150;28;20576;-58
2020/12/21 07:06:16;;;;;;;18.60;10.60;;;5.60;13.30;;;;;;5067345;28;20433;-58
2020/12/21 07:08:43;;;;;;;17.53;11.73;;;5.60;11.10;;;;;;5053977;28;20784;-58
2020/12/21 07:11:21;;;;;;;18.73;11.57;;;5.60;10.90;;;;;;5053324;28;20908;-58
2020/12/21 07:13:49;;;;;;;19.07;11.20;;;5.70;13.30;;;;;;5052464;28;20431;-59
2020/12/21 07:16:19;;;;;;;18.80;12.33;;;5.70;10.60;;;;;;5052473;28;20919;-58
2020/12/21 07:18:46;;;;;;;18.00;13.07;;;5.80;9.70;;;;;;5053361;28;20507;-56
2020/12/21 07:21:12;;;;;;;20.93;12.47;;;5.80;6.30;;;;;;5053904;28;20422;-58
2020/12/21 07:23:39;;;;;;;20.43;12.50;;;5.80;9.90;;;;;;5054274;28;20473;-55
2020/12/21 07:26:06;;;;;;;18.97;12.43;;;6.60;20.00;;;;;;5053139;28;20434;-55
2020/12/21 07:28:32;;;;;;;21.00;12.47;;;6.10;8.40;;;;;;5053634;28;20458;-56
2020/12/21 07:31:15;;;;;;;16.50;11.40;;;6.20;3.20;;;;;;5053690;28;20551;-55
2020/12/21 07:33:59;;;;;;;20.70;11.60;;;6.30;4.50;;;;;;5039766;28;20450;-55
2020/12/21 07:36:30;;;;;;;18.07;12.77;;;6.40;1.30;;;;;;5033966;28;20875;-56
2020/12/21 07:39:16;;;;;;;18.83;11.60;;;6.40;1.00;;;;;;5033092;28;20757;-56
2020/12/21 07:41:47;;;;;;;17.20;10.30;;;6.50;1.00;;;;;;5034308;28;20439;-56
2020/12/21 07:44:20;;;;;;;18.83;12.40;;;6.50;1.00;;;;;;5034154;28;20459;-55
2020/12/21 07:47:07;;;;;;;18.07;11.23;;;6.40;1.00;;;;;;5047062;28;20496;-56
2020/12/21 07:49:34;;;;;;;16.23;11.43;;;6.40;1.00;;;;;;5053899;28;20532;-57
2020/12/21 07:52:02;;;;;;;15.50;11.57;;;6.50;1.00;;;;;;5053669;28;20441;-56
2020/12/21 07:54:31;;;;;;;19.20;11.80;;;6.70;1.00;;;;;;5053256;28;20438;-56
2020/12/21 07:57:01;;;;;;;18.73;11.87;;;6.70;1.00;;;;;;5052813;28;20776;-55
2020/12/21 07:59:27;;;;;;;16.13;11.10;;;6.60;1.00;;;;;;5052639;28;20436;-57
2020/12/21 08:01:57;;;;;;;16.67;11.47;;;6.70;1.00;;;;;;5052798;28;20449;-57
2020/12/21 08:04:24;;;;;;;16.97;11.93;;;6.70;1.00;;;;;;5053399;28;20466;-55
2020/12/21 08:06:50;;;;;;;18.23;12.23;;;6.80;1.00;;;;;;5053594;28;20418;-56
2020/12/21 08:09:16;;;;;;;18.00;12.43;;;6.80;1.00;;;;;;5053542;28;20837;-56
2020/12/21 08:11:42;;;;;;;17.93;11.13;;;6.80;1.00;;;;;;5054843;28;20422;-56
2020/12/21 08:14:14;;;;;;;21.37;12.00;;;6.80;1.00;;;;;;5057572;28;20814;-55
2020/12/21 08:16:39;;;;;;;17.90;12.77;;;6.80;1.00;;;;;;5057063;28;20385;-56
2020/12/21 08:19:10;;;;;;;18.47;12.40;;;6.70;1.00;;;;;;5057262;28;20445;-55
2020/12/21 08:21:36;;;;;;;17.17;12.90;;;6.60;1.00;;;;;;5056693;28;20188;-56
2020/12/21 08:24:04;;;;;;;16.07;11.00;;;6.50;1.00;;;;;;5054336;28;20469;-56
2020/12/21 08:26:36;;;;;;;21.93;13.03;;;6.40;1.00;;;;;;5037440;28;20257;-56
2020/12/21 08:29:02;;;;;;;22.27;13.47;;;6.30;1.00;;;;;;5056847;28;20419;-56
2020/12/21 08:31:28;;;;;;;22.37;13.20;;;6.20;1.00;;;;;;5056673;28;20441;-56
2020/12/21 08:34:06;;;;;;;20.23;13.10;;;6.30;1.00;;;;;;5056607;28;20438;-56
2020/12/21 08:36:36;;;;;;;19.07;11.93;;;6.30;1.00;;;;;;5056504;28;20644;-55
2020/12/21 08:39:18;;;;;;;23.27;14.20;;;6.40;1.00;;;;;;5055698;28;20447;-55
2020/12/21 08:41:53;;;;;;;21.83;13.20;;;6.40;1.00;;;;;;5056759;28;20417;-56
2020/12/21 08:44:20;;;;;;;18.47;12.17;;;6.30;1.00;;;;;;5055650;28;20457;-55
2020/12/21 08:46:47;;;;;;;19.47;13.27;;;6.30;1.00;;;;;;5054909;28;20481;-55
2020/12/21 08:49:13;;;;;;;22.73;13.87;;;6.20;1.00;;;;;;5055707;28;20435;-55
2020/12/21 08:51:39;;;;;;;21.10;13.27;;;6.20;1.00;;;;;;5056167;28;20920;-55
2020/12/21 08:54:05;;;;;;;25.23;15.13;;;6.20;1.00;;;;;;5054993;28;20196;-56
2020/12/21 08:56:30;;;;;;;24.23;14.47;;;6.10;1.00;;;;;;5056386;28;20415;-55
2020/12/21 08:58:56;;;;;;;23.57;14.33;;;6.10;1.00;;;;;;5055799;28;20660;-56
2020/12/21 09:01:22;;;;;;;22.77;15.40;;;6.10;1.00;;;;;;5056249;28;20188;-56
2020/12/21 09:03:47;;;;;;;22.30;14.90;;;6.10;1.00;;;;;;5056210;28;20204;-55
2020/12/21 09:06:26;;;;;;;23.63;14.77;;;6.10;1.00;;;;;;5055236;28;20178;-57
2020/12/21 09:08:52;;;;;;;21.53;14.37;;;6.10;1.00;;;;;;5055891;28;20179;-56
2020/12/21 09:11:21;;;;;;;22.77;15.53;;;6.10;1.00;;;;;;5056246;28;20416;-55
2020/12/21 09:13:47;;;;;;;21.03;13.60;;;6.10;1.00;;;;;;5056172;28;20511;-56
2020/12/21 09:16:18;;;;;;;24.67;14.37;;;6.10;1.00;;;;;;5055260;28;20930;-54
2020/12/21 09:18:44;;;;;;;25.33;13.60;;;6.20;1.00;;;;;;5056110;28;20410;-61
2020/12/21 09:21:09;;;;;;;28.40;16.73;;;6.20;1.00;;;;;;5056093;28;20422;-56
2020/12/21 09:23:35;;;;;;;27.30;14.73;;;6.20;1.00;;;;;;5055109;28;20203;-56
2020/12/21 09:26:04;;;;;;;24.10;15.50;;;6.30;1.00;;;;;;5055794;28;20475;-56
2020/12/21 09:28:29;;;;;;;30.17;15.40;;;6.40;1.00;;;;;;5055759;28;20182;-56
2020/12/21 09:30:55;;;;;;;21.17;14.30;;;6.50;1.00;;;;;;5055765;28;20737;-56
2020/12/21 09:33:21;;;;;;;28.20;16.40;;;6.50;1.00;;;;;;5055839;28;20283;-56
2020/12/21 09:35:47;;;;;;;23.27;15.73;;;6.50;1.00;;;;;;5052177;28;20450;-55
2020/12/21 09:38:13;;;;;;;21.37;14.00;;;6.50;1.00;;;;;;5055665;28;20202;-56
2020/12/21 09:40:38;;;;;;;20.67;14.03;;;6.50;1.00;;;;;;5055638;28;20484;-57
2020/12/21 09:43:04;;;;;;;26.30;15.13;;;6.70;1.00;;;;;;5055324;28;20750;-56
2020/12/21 09:45:30;;;;;;;21.50;13.63;;;6.80;1.00;;;;;;5055553;28;20494;-56
2020/12/21 09:47:55;;;;;;;24.00;14.43;;;6.80;1.00;;;;;;5054431;28;20247;-55
2020/12/21 09:50:21;;;;;;;25.47;15.47;;;6.90;1.00;;;;;;5055114;28;20176;-55
2020/12/21 09:52:47;;;;;;;22.73;14.20;;;6.90;1.00;;;;;;5055396;28;20176;-57
2020/12/21 09:55:15;;;;;;;20.93;14.20;;;7.00;1.00;;;;;;5055292;28;20491;-55
2020/12/21 09:57:41;;;;;;;25.40;16.23;;;7.10;1.00;;;;;;5055135;28;20586;-55
2020/12/21 10:00:06;;;;;;;23.27;14.33;;;7.10;1.00;;;;;;5055205;28;20521;-56
2020/12/21 10:02:32;;;;;;;20.17;13.70;;;7.20;1.00;;;;;;5054568;28;20251;-55
2020/12/21 10:04:58;;;;;;;28.03;15.27;;;7.20;1.00;;;;;;5055105;28;20221;-55
2020/12/21 10:07:24;;;;;;;19.23;13.93;;;7.30;1.00;;;;;;5055058;28;20175;-56
2020/12/21 10:09:50;;;;;;;20.73;12.50;;;7.40;1.00;;;;;;5070641;28;20180;-54
2020/12/21 10:12:15;;;;;;;20.90;13.33;;;7.50;1.00;;;;;;5055319;28;20427;-55
2020/12/21 10:14:43;;;;;;;26.37;14.60;;;7.40;1.00;;;;;;5054870;28;20502;-54
2020/12/21 10:17:09;;;;;;;21.00;12.40;;;7.30;1.00;;;;;;5054687;28;20596;-55
2020/12/21 10:19:35;;;;;;;20.03;14.13;;;7.30;1.00;;;;;;5055105;28;20434;-55
2020/12/21 10:22:01;;;;;;;22.33;13.43;;;7.30;1.00;;;;;;5055117;28;20419;-55
2020/12/21 10:24:27;;;;;;;20.37;13.33;;;7.40;1.00;;;;;;5054603;28;20933;-59
2020/12/21 10:26:53;;;;;;;20.60;13.80;;;7.60;1.00;;;;;;5054587;28;20433;-56
2020/12/21 10:29:19;;;;;;;19.70;12.60;;;7.70;1.00;;;;;;5054575;28;20223;-56
2020/12/21 10:31:45;;;;;;;25.43;14.10;;;7.70;1.00;;;;;;5054563;28;20173;-55
2020/12/21 10:34:11;;;;;;;21.23;12.90;;;7.80;1.00;;;;;;5053611;28;20644;-54
2020/12/21 10:36:36;;;;;;;19.87;12.83;;;7.70;1.00;;;;;;5053638;28;20438;-54
2020/12/21 10:39:02;;;;;;;20.13;12.90;;;7.90;1.00;;;;;;5054579;28;20594;-55
2020/12/21 10:41:32;;;;;;;22.60;13.83;;;7.90;1.00;;;;;;5054132;28;20278;-55
2020/12/21 10:43:58;;;;;;;21.27;13.27;;;7.90;1.00;;;;;;5054483;28;20223;-57
2020/12/21 10:46:24;;;;;;;20.50;13.27;;;7.90;1.00;;;;;;5054320;28;20463;-56
2020/12/21 10:48:50;;;;;;;23.07;14.80;;;7.90;1.00;;;;;;5053585;28;20202;-56
2020/12/21 10:51:31;;;;;;;25.43;15.27;;;7.90;1.00;;;;;;5054099;28;20426;-56
2020/12/21 10:53:57;;;;;;;21.20;13.20;;;7.80;1.00;;;;;;5054200;28;20172;-55
2020/12/21 10:56:23;;;;;;;22.97;14.10;;;7.90;1.00;;;;;;5053100;28;20409;-56
2020/12/21 10:58:50;;;;;;;21.17;13.47;;;7.90;1.00;;;;;;5053956;28;20426;-55
2020/12/21 11:01:16;;;;;;;19.17;12.80;;;8.00;1.00;;;;;;5053833;28;20422;-56
2020/12/21 11:03:43;;;;;;;19.10;13.37;;;8.00;1.00;;;;;;5053548;28;20458;-56
2020/12/21 11:06:09;;;;;;;19.33;13.97;;;7.90;1.00;;;;;;5053966;28;20514;-56
2020/12/21 11:08:35;;;;;;;23.63;14.80;;;7.90;1.00;;;;;;5053988;28;20510;-56
2020/12/21 11:11:00;;;;;;;20.50;12.93;;;8.00;1.00;;;;;;5053374;28;20525;-55
2020/12/21 11:13:26;;;;;;;25.57;14.60;;;8.20;1.00;;;;;;5053368;28;20435;-55
2020/12/21 11:15:52;;;;;;;22.70;13.93;;;8.30;1.00;;;;;;5053528;28;20606;-56
2020/12/21 11:18:18;;;;;;;19.80;14.07;;;8.20;1.00;;;;;;5054129;28;20188;-55
2020/12/21 11:20:44;;;;;;;21.30;13.80;;;8.30;1.00;;;;;;5053302;28;20413;-55
2020/12/21 11:23:10;;;;;;;21.10;13.63;;;8.30;1.00;;;;;;5053749;28;20585;-54
2020/12/21 11:25:36;;;;;;;23.57;14.13;;;8.10;1.00;;;;;;5053871;28;20237;-55
2020/12/21 11:28:06;;;;;;;19.67;13.50;;;8.10;1.00;;;;;;5053645;28;20397;-55
2020/12/21 11:30:32;;;;;;;18.80;13.27;;;8.10;1.00;;;;;;5053755;28;20850;-55
2020/12/21 11:32:58;;;;;;;22.87;14.17;;;8.20;1.00;;;;;;5053757;28;20465;-55
2020/12/21 11:35:24;;;;;;;29.03;13.90;;;8.20;1.00;;;;;;5048346;28;20457;-56
2020/12/21 11:37:50;;;;;;;20.83;12.70;;;8.20;1.00;;;;;;5033682;28;20425;-56
2020/12/21 11:40:16;;;;;;;19.47;13.63;;;8.10;1.00;;;;;;5033761;28;20753;-56
2020/12/21 11:42:42;;;;;;;20.63;13.43;;;8.10;1.00;;;;;;5033606;28;20427;-56
2020/12/21 11:45:08;;;;;;;22.07;13.37;;;8.10;1.00;;;;;;5033712;28;20899;-56
2020/12/21 11:47:34;;;;;;;20.53;13.00;;;8.20;1.00;;;;;;5036554;28;20850;-55
2020/12/21 11:50:00;;;;;;;22.17;14.57;;;8.30;1.00;;;;;;5037677;28;20169;-57
2020/12/21 11:52:29;;;;;;;23.30;14.10;;;8.20;1.00;;;;;;5037866;28;20437;-56
2020/12/21 11:54:54;;;;;;;22.30;13.40;;;8.40;1.00;;;;;;5056189;28;20911;-56
2020/12/21 11:57:20;;;;;;;21.20;14.27;;;8.30;1.00;;;;;;5057533;28;20418;-56
2020/12/21 11:59:45;;;;;;;21.17;12.57;;;8.20;1.00;;;;;;5057516;28;20278;-55
2020/12/21 12:02:11;;;;;;;20.63;14.93;;;8.30;1.00;;;;;;5057306;28;20230;-56
2020/12/21 12:04:37;;;;;;;23.67;14.07;;;8.20;1.00;;;;;;5057274;28;20221;-56
2020/12/21 12:07:03;;;;;;;20.10;13.30;;;8.20;1.00;;;;;;5057270;28;20178;-56
2020/12/21 12:09:29;;;;;;;28.80;15.40;;;8.10;1.00;;;;;;5057186;28;20495;-55
2020/12/21 12:11:56;;;;;;;26.33;14.00;;;8.20;1.00;;;;;;5057454;28;20172;-56
2020/12/21 12:14:22;;;;;;;25.27;15.13;;;8.20;1.00;;;;;;5056932;28;20437;-56
2020/12/21 12:16:48;;;;;;;23.53;13.93;;;8.30;1.00;;;;;;5057122;28;20907;-56
2020/12/21 12:19:14;;;;;;;22.30;13.80;;;8.30;1.00;;;;;;5057260;28;20461;-56
2020/12/21 12:21:40;;;;;;;22.87;14.43;;;8.30;1.00;;;;;;5057046;28;20418;-56
2020/12/21 12:24:06;;;;;;;20.43;12.87;;;8.30;1.00;;;;;;5056933;28;20495;-56
2020/12/21 12:26:32;;;;;;;20.77;12.67;;;8.20;1.00;;;;;;5057014;28;20186;-56
2020/12/21 12:28:57;;;;;;;22.37;12.30;;;8.20;1.00;;;;;;5056981;28;20411;-56
2020/12/21 12:31:23;;;;;;;22.83;13.50;;;8.20;1.00;;;;;;5055927;28;20176;-56
2020/12/21 12:33:50;;;;;;;20.67;12.70;;;8.10;1.00;;;;;;5056445;28;20207;-56
2020/12/21 12:36:20;;;;;;;19.73;12.50;;;8.20;1.00;;;;;;5057069;28;20172;-56
2020/12/21 12:38:47;;;;;;;23.73;14.53;;;8.20;1.00;;;;;;5057097;28;20791;-56
2020/12/21 12:41:12;;;;;;;17.13;11.60;;;8.20;1.00;;;;;;5056754;28;20437;-56
2020/12/21 12:43:38;;;;;;;21.83;13.07;;;8.10;1.00;;;;;;5056641;28;20461;-55
2020/12/21 12:46:05;;;;;;;23.33;13.37;;;8.10;1.00;;;;;;5056439;28;20196;-56